sensor_id;sensor_type;location;lat;lon;timestamp;P1;durP1;ratioP1;P2;durP2;ratioP2
59006;SDS011;44792;52.760;6.726;2024-03-22T00:00:21;45.78;;;27.17;;
59006;SDS011;44792;52.760;6.726;2024-03-22T00:02:47;49.80;;;25.65;;
59006;SDS011;44792;52.760;6.726;2024-03-22T00:05:12;47.67;;;26.17;;
59006;SDS011;44792;52.760;6.726;2024-03-22T00:07:38;47.55;;;26.50;;
59006;SDS011;44792;52.760;6.726;2024-03-22T00:10:05;46.83;;;25.77;;
59006;SDS011;44792;52.760;6.726;2024-03-22T00:12:31;49.47;;;26.90;;
59006;SDS011;44792;52.760;6.726;2024-03-22T00:14:57;43.05;;;25.77;;
59006;SDS011;44792;52.760;6.726;2024-03-22T00:17:23;53.92;;;28.10;;
59006;SDS011;44792;52.760;6.726;2024-03-22T00:19:48;47.58;;;26.75;;
59006;SDS011;44792;52.760;6.726;2024-03-22T00:22:14;52.85;;;26.45;;
59006;SDS011;44792;52.760;6.726;2024-03-22T00:24:40;53.42;;;28.35;;
59006;SDS011;44792;52.760;6.726;2024-03-22T00:27:06;51.25;;;27.90;;
59006;SDS011;44792;52.760;6.726;2024-03-22T00:29:32;55.75;;;28.85;;
59006;SDS011;44792;52.760;6.726;2024-03-22T00:31:58;54.15;;;29.33;;
59006;SDS011;44792;52.760;6.726;2024-03-22T00:34:23;46.60;;;28.45;;
59006;SDS011;44792;52.760;6.726;2024-03-22T00:36:49;50.75;;;27.77;;
59006;SDS011;44792;52.760;6.726;2024-03-22T00:39:16;48.78;;;26.33;;
59006;SDS011;44792;52.760;6.726;2024-03-22T00:41:42;53.80;;;29.00;;
59006;SDS011;44792;52.760;6.726;2024-03-22T00:44:08;55.80;;;29.95;;
59006;SDS011;44792;52.760;6.726;2024-03-22T00:46:33;55.45;;;28.83;;
59006;SDS011;44792;52.760;6.726;2024-03-22T00:49:00;48.92;;;26.65;;
59006;SDS011;44792;52.760;6.726;2024-03-22T00:51:26;52.45;;;29.48;;
59006;SDS011;44792;52.760;6.726;2024-03-22T00:53:52;56.25;;;30.63;;
59006;SDS011;44792;52.760;6.726;2024-03-22T00:56:18;56.75;;;29.58;;
59006;SDS011;44792;52.760;6.726;2024-03-22T00:58:43;54.70;;;29.95;;
59006;SDS011;44792;52.760;6.726;2024-03-22T01:01:09;53.13;;;27.88;;
59006;SDS011;44792;52.760;6.726;2024-03-22T01:03:35;58.40;;;30.35;;
59006;SDS011;44792;52.760;6.726;2024-03-22T01:06:05;56.00;;;30.00;;
59006;SDS011;44792;52.760;6.726;2024-03-22T01:08:32;53.08;;;29.33;;
59006;SDS011;44792;52.760;6.726;2024-03-22T01:10:58;55.28;;;30.63;;
59006;SDS011;44792;52.760;6.726;2024-03-22T01:13:26;58.60;;;31.05;;
59006;SDS011;44792;52.760;6.726;2024-03-22T01:15:52;56.35;;;28.63;;
59006;SDS011;44792;52.760;6.726;2024-03-22T01:18:17;59.65;;;30.52;;
59006;SDS011;44792;52.760;6.726;2024-03-22T01:20:43;63.85;;;32.58;;
59006;SDS011;44792;52.760;6.726;2024-03-22T01:23:09;62.78;;;31.08;;
59006;SDS011;44792;52.760;6.726;2024-03-22T01:25:35;57.83;;;31.48;;
59006;SDS011;44792;52.760;6.726;2024-03-22T01:28:01;59.10;;;31.10;;
59006;SDS011;44792;52.760;6.726;2024-03-22T01:30:26;60.35;;;32.22;;
59006;SDS011;44792;52.760;6.726;2024-03-22T01:32:54;59.60;;;30.48;;
59006;SDS011;44792;52.760;6.726;2024-03-22T01:35:20;61.63;;;32.08;;
59006;SDS011;44792;52.760;6.726;2024-03-22T01:37:46;62.13;;;32.40;;
59006;SDS011;44792;52.760;6.726;2024-03-22T01:40:12;58.25;;;31.33;;
59006;SDS011;44792;52.760;6.726;2024-03-22T01:42:38;61.55;;;31.30;;
59006;SDS011;44792;52.760;6.726;2024-03-22T01:45:04;59.15;;;30.58;;
59006;SDS011;44792;52.760;6.726;2024-03-22T01:47:30;60.88;;;32.25;;
59006;SDS011;44792;52.760;6.726;2024-03-22T01:49:56;62.92;;;31.95;;
59006;SDS011;44792;52.760;6.726;2024-03-22T01:52:22;59.72;;;31.35;;
59006;SDS011;44792;52.760;6.726;2024-03-22T01:54:48;61.92;;;33.47;;
59006;SDS011;44792;52.760;6.726;2024-03-22T01:57:14;63.38;;;33.70;;
59006;SDS011;44792;52.760;6.726;2024-03-22T01:59:40;66.35;;;32.50;;
59006;SDS011;44792;52.760;6.726;2024-03-22T02:02:07;66.55;;;32.13;;
59006;SDS011;44792;52.760;6.726;2024-03-22T02:04:32;63.45;;;31.73;;
59006;SDS011;44792;52.760;6.726;2024-03-22T02:06:58;61.40;;;30.83;;
59006;SDS011;44792;52.760;6.726;2024-03-22T02:09:24;63.42;;;32.22;;
59006;SDS011;44792;52.760;6.726;2024-03-22T02:11:50;62.45;;;32.42;;
59006;SDS011;44792;52.760;6.726;2024-03-22T02:14:16;63.72;;;32.67;;
59006;SDS011;44792;52.760;6.726;2024-03-22T02:16:42;66.70;;;34.63;;
59006;SDS011;44792;52.760;6.726;2024-03-22T02:19:08;65.82;;;32.65;;
59006;SDS011;44792;52.760;6.726;2024-03-22T02:21:34;64.68;;;33.10;;
59006;SDS011;44792;52.760;6.726;2024-03-22T02:24:00;62.53;;;31.25;;
59006;SDS011;44792;52.760;6.726;2024-03-22T02:26:25;67.97;;;33.13;;
59006;SDS011;44792;52.760;6.726;2024-03-22T02:28:51;68.20;;;33.58;;
59006;SDS011;44792;52.760;6.726;2024-03-22T02:31:17;67.50;;;33.53;;
59006;SDS011;44792;52.760;6.726;2024-03-22T02:33:45;60.90;;;33.30;;
59006;SDS011;44792;52.760;6.726;2024-03-22T02:36:11;65.28;;;34.55;;
59006;SDS011;44792;52.760;6.726;2024-03-22T02:38:36;65.60;;;33.22;;
59006;SDS011;44792;52.760;6.726;2024-03-22T02:41:02;66.53;;;32.47;;
59006;SDS011;44792;52.760;6.726;2024-03-22T02:43:28;63.17;;;31.25;;
59006;SDS011;44792;52.760;6.726;2024-03-22T02:45:53;67.40;;;34.13;;
59006;SDS011;44792;52.760;6.726;2024-03-22T02:48:19;64.47;;;32.08;;
59006;SDS011;44792;52.760;6.726;2024-03-22T02:50:45;69.18;;;33.25;;
59006;SDS011;44792;52.760;6.726;2024-03-22T02:53:10;64.70;;;33.00;;
59006;SDS011;44792;52.760;6.726;2024-03-22T02:55:37;66.00;;;33.35;;
59006;SDS011;44792;52.760;6.726;2024-03-22T02:58:03;66.15;;;32.97;;
59006;SDS011;44792;52.760;6.726;2024-03-22T03:00:30;65.28;;;32.83;;
59006;SDS011;44792;52.760;6.726;2024-03-22T03:02:56;62.65;;;30.92;;
59006;SDS011;44792;52.760;6.726;2024-03-22T03:05:21;66.82;;;32.60;;
59006;SDS011;44792;52.760;6.726;2024-03-22T03:07:50;64.43;;;31.40;;
59006;SDS011;44792;52.760;6.726;2024-03-22T03:10:16;65.15;;;33.83;;
59006;SDS011;44792;52.760;6.726;2024-03-22T03:12:42;69.70;;;34.53;;
59006;SDS011;44792;52.760;6.726;2024-03-22T03:15:08;66.40;;;33.35;;
59006;SDS011;44792;52.760;6.726;2024-03-22T03:17:33;64.03;;;31.00;;
59006;SDS011;44792;52.760;6.726;2024-03-22T03:19:59;69.30;;;33.55;;
59006;SDS011;44792;52.760;6.726;2024-03-22T03:22:25;70.13;;;32.53;;
59006;SDS011;44792;52.760;6.726;2024-03-22T03:24:50;67.20;;;32.58;;
59006;SDS011;44792;52.760;6.726;2024-03-22T03:27:16;66.18;;;32.78;;
59006;SDS011;44792;52.760;6.726;2024-03-22T03:29:42;64.18;;;32.63;;
59006;SDS011;44792;52.760;6.726;2024-03-22T03:32:07;69.70;;;33.28;;
59006;SDS011;44792;52.760;6.726;2024-03-22T03:34:33;68.65;;;32.03;;
59006;SDS011;44792;52.760;6.726;2024-03-22T03:36:59;65.95;;;32.28;;
59006;SDS011;44792;52.760;6.726;2024-03-22T03:39:26;71.05;;;34.58;;
59006;SDS011;44792;52.760;6.726;2024-03-22T03:41:54;65.22;;;31.83;;
59006;SDS011;44792;52.760;6.726;2024-03-22T03:44:20;60.17;;;30.52;;
59006;SDS011;44792;52.760;6.726;2024-03-22T03:46:45;63.88;;;32.40;;
59006;SDS011;44792;52.760;6.726;2024-03-22T03:49:11;61.42;;;30.88;;
59006;SDS011;44792;52.760;6.726;2024-03-22T03:51:37;63.75;;;32.45;;
59006;SDS011;44792;52.760;6.726;2024-03-22T03:54:02;61.15;;;30.55;;
59006;SDS011;44792;52.760;6.726;2024-03-22T03:56:29;66.10;;;32.28;;
59006;SDS011;44792;52.760;6.726;2024-03-22T03:58:54;61.85;;;32.63;;
59006;SDS011;44792;52.760;6.726;2024-03-22T04:01:20;66.10;;;32.63;;
59006;SDS011;44792;52.760;6.726;2024-03-22T04:03:48;62.33;;;31.48;;
59006;SDS011;44792;52.760;6.726;2024-03-22T04:06:14;64.22;;;31.45;;
59006;SDS011;44792;52.760;6.726;2024-03-22T04:08:39;63.70;;;32.78;;
59006;SDS011;44792;52.760;6.726;2024-03-22T04:11:05;63.20;;;30.00;;
59006;SDS011;44792;52.760;6.726;2024-03-22T04:13:31;58.65;;;31.60;;
59006;SDS011;44792;52.760;6.726;2024-03-22T04:15:58;64.32;;;30.85;;
59006;SDS011;44792;52.760;6.726;2024-03-22T04:18:25;61.63;;;29.70;;
59006;SDS011;44792;52.760;6.726;2024-03-22T04:20:56;60.97;;;31.13;;
59006;SDS011;44792;52.760;6.726;2024-03-22T04:23:24;66.55;;;31.30;;
59006;SDS011;44792;52.760;6.726;2024-03-22T04:28:25;64.30;;;31.58;;
59006;SDS011;44792;52.760;6.726;2024-03-22T04:30:57;64.60;;;31.45;;
59006;SDS011;44792;52.760;6.726;2024-03-22T04:33:25;62.17;;;31.05;;
59006;SDS011;44792;52.760;6.726;2024-03-22T04:35:51;67.47;;;31.08;;
59006;SDS011;44792;52.760;6.726;2024-03-22T04:38:17;59.40;;;30.52;;
59006;SDS011;44792;52.760;6.726;2024-03-22T04:40:43;67.38;;;32.63;;
59006;SDS011;44792;52.760;6.726;2024-03-22T04:43:09;59.25;;;31.92;;
59006;SDS011;44792;52.760;6.726;2024-03-22T04:45:34;67.72;;;33.53;;
59006;SDS011;44792;52.760;6.726;2024-03-22T04:48:04;61.40;;;30.92;;
59006;SDS011;44792;52.760;6.726;2024-03-22T04:50:30;62.75;;;33.08;;
59006;SDS011;44792;52.760;6.726;2024-03-22T04:52:56;64.57;;;31.75;;
59006;SDS011;44792;52.760;6.726;2024-03-22T04:55:22;66.88;;;33.00;;
59006;SDS011;44792;52.760;6.726;2024-03-22T04:57:48;68.65;;;33.28;;
59006;SDS011;44792;52.760;6.726;2024-03-22T05:00:14;65.53;;;34.05;;
59006;SDS011;44792;52.760;6.726;2024-03-22T05:02:40;65.88;;;33.65;;
59006;SDS011;44792;52.760;6.726;2024-03-22T05:05:06;64.03;;;33.15;;
59006;SDS011;44792;52.760;6.726;2024-03-22T05:07:35;70.15;;;33.83;;
59006;SDS011;44792;52.760;6.726;2024-03-22T05:10:01;72.07;;;34.10;;
59006;SDS011;44792;52.760;6.726;2024-03-22T05:12:28;67.50;;;33.80;;
59006;SDS011;44792;52.760;6.726;2024-03-22T05:14:54;66.75;;;32.78;;
59006;SDS011;44792;52.760;6.726;2024-03-22T05:17:20;67.05;;;33.47;;
59006;SDS011;44792;52.760;6.726;2024-03-22T05:19:46;68.25;;;34.50;;
59006;SDS011;44792;52.760;6.726;2024-03-22T05:22:12;73.28;;;34.80;;
59006;SDS011;44792;52.760;6.726;2024-03-22T05:24:37;72.38;;;34.65;;
59006;SDS011;44792;52.760;6.726;2024-03-22T05:27:03;63.08;;;32.13;;
59006;SDS011;44792;52.760;6.726;2024-03-22T05:29:29;62.25;;;32.47;;
59006;SDS011;44792;52.760;6.726;2024-03-22T05:31:55;70.30;;;35.63;;
59006;SDS011;44792;52.760;6.726;2024-03-22T05:34:20;65.53;;;32.50;;
59006;SDS011;44792;52.760;6.726;2024-03-22T05:36:46;71.43;;;34.58;;
59006;SDS011;44792;52.760;6.726;2024-03-22T05:39:12;69.82;;;34.08;;
59006;SDS011;44792;52.760;6.726;2024-03-22T05:41:37;69.45;;;33.00;;
59006;SDS011;44792;52.760;6.726;2024-03-22T05:44:04;64.93;;;31.55;;
59006;SDS011;44792;52.760;6.726;2024-03-22T05:46:30;63.85;;;31.00;;
59006;SDS011;44792;52.760;6.726;2024-03-22T05:48:56;66.53;;;31.85;;
59006;SDS011;44792;52.760;6.726;2024-03-22T05:51:23;70.25;;;33.17;;
59006;SDS011;44792;52.760;6.726;2024-03-22T05:53:52;64.75;;;31.58;;
59006;SDS011;44792;52.760;6.726;2024-03-22T05:56:17;64.30;;;32.38;;
59006;SDS011;44792;52.760;6.726;2024-03-22T05:58:43;70.15;;;33.00;;
59006;SDS011;44792;52.760;6.726;2024-03-22T06:01:09;64.75;;;32.58;;
59006;SDS011;44792;52.760;6.726;2024-03-22T06:03:35;64.80;;;33.00;;
59006;SDS011;44792;52.760;6.726;2024-03-22T06:06:00;67.25;;;32.25;;
59006;SDS011;44792;52.760;6.726;2024-03-22T06:08:26;60.92;;;32.80;;
59006;SDS011;44792;52.760;6.726;2024-03-22T06:10:53;68.13;;;32.13;;
59006;SDS011;44792;52.760;6.726;2024-03-22T06:13:19;63.20;;;31.52;;
59006;SDS011;44792;52.760;6.726;2024-03-22T06:15:47;64.43;;;31.88;;
59006;SDS011;44792;52.760;6.726;2024-03-22T06:18:13;68.57;;;33.35;;
59006;SDS011;44792;52.760;6.726;2024-03-22T06:20:39;65.05;;;31.88;;
59006;SDS011;44792;52.760;6.726;2024-03-22T06:23:05;68.55;;;33.28;;
59006;SDS011;44792;52.760;6.726;2024-03-22T06:25:31;60.70;;;32.65;;
59006;SDS011;44792;52.760;6.726;2024-03-22T06:27:56;69.07;;;33.22;;
59006;SDS011;44792;52.760;6.726;2024-03-22T06:30:22;65.05;;;34.33;;
59006;SDS011;44792;52.760;6.726;2024-03-22T06:32:48;71.70;;;35.60;;
59006;SDS011;44792;52.760;6.726;2024-03-22T06:35:14;63.97;;;32.67;;
59006;SDS011;44792;52.760;6.726;2024-03-22T06:37:39;64.07;;;32.88;;
59006;SDS011;44792;52.760;6.726;2024-03-22T06:40:06;68.95;;;35.17;;
59006;SDS011;44792;52.760;6.726;2024-03-22T06:42:35;69.30;;;33.63;;
59006;SDS011;44792;52.760;6.726;2024-03-22T06:45:01;67.18;;;33.95;;
59006;SDS011;44792;52.760;6.726;2024-03-22T06:47:27;69.25;;;33.83;;
59006;SDS011;44792;52.760;6.726;2024-03-22T06:49:53;69.55;;;33.65;;
59006;SDS011;44792;52.760;6.726;2024-03-22T06:52:19;66.18;;;34.65;;
59006;SDS011;44792;52.760;6.726;2024-03-22T06:54:45;60.20;;;31.05;;
59006;SDS011;44792;52.760;6.726;2024-03-22T06:57:11;64.22;;;32.65;;
59006;SDS011;44792;52.760;6.726;2024-03-22T06:59:37;72.43;;;33.10;;
59006;SDS011;44792;52.760;6.726;2024-03-22T07:02:03;64.75;;;32.13;;
59006;SDS011;44792;52.760;6.726;2024-03-22T07:04:29;58.08;;;28.63;;
59006;SDS011;44792;52.760;6.726;2024-03-22T07:06:54;66.15;;;29.13;;
59006;SDS011;44792;52.760;6.726;2024-03-22T07:09:20;62.17;;;31.70;;
59006;SDS011;44792;52.760;6.726;2024-03-22T07:11:46;62.42;;;29.02;;
59006;SDS011;44792;52.760;6.726;2024-03-22T07:14:11;55.72;;;28.20;;
59006;SDS011;44792;52.760;6.726;2024-03-22T07:16:37;56.80;;;27.10;;
59006;SDS011;44792;52.760;6.726;2024-03-22T07:19:04;54.53;;;27.25;;
59006;SDS011;44792;52.760;6.726;2024-03-22T07:21:29;58.63;;;26.75;;
59006;SDS011;44792;52.760;6.726;2024-03-22T07:23:56;56.55;;;27.95;;
59006;SDS011;44792;52.760;6.726;2024-03-22T07:26:21;57.08;;;27.75;;
59006;SDS011;44792;52.760;6.726;2024-03-22T07:28:47;55.88;;;26.27;;
59006;SDS011;44792;52.760;6.726;2024-03-22T07:31:13;49.20;;;25.55;;
59006;SDS011;44792;52.760;6.726;2024-03-22T07:33:39;54.20;;;26.33;;
59006;SDS011;44792;52.760;6.726;2024-03-22T07:36:05;53.88;;;26.17;;
59006;SDS011;44792;52.760;6.726;2024-03-22T07:38:31;51.13;;;24.42;;
59006;SDS011;44792;52.760;6.726;2024-03-22T07:40:57;47.95;;;24.42;;
59006;SDS011;44792;52.760;6.726;2024-03-22T07:43:22;52.08;;;24.52;;
59006;SDS011;44792;52.760;6.726;2024-03-22T07:45:48;46.88;;;24.13;;
59006;SDS011;44792;52.760;6.726;2024-03-22T07:48:14;45.25;;;23.90;;
59006;SDS011;44792;52.760;6.726;2024-03-22T07:50:40;49.17;;;23.92;;
59006;SDS011;44792;52.760;6.726;2024-03-22T07:53:06;45.05;;;22.60;;
59006;SDS011;44792;52.760;6.726;2024-03-22T07:55:32;45.72;;;23.98;;
59006;SDS011;44792;52.760;6.726;2024-03-22T07:57:58;47.72;;;23.23;;
59006;SDS011;44792;52.760;6.726;2024-03-22T08:00:24;45.10;;;22.10;;
59006;SDS011;44792;52.760;6.726;2024-03-22T08:02:52;42.50;;;21.73;;
59006;SDS011;44792;52.760;6.726;2024-03-22T08:05:18;45.70;;;21.17;;
59006;SDS011;44792;52.760;6.726;2024-03-22T08:07:44;45.65;;;20.05;;
59006;SDS011;44792;52.760;6.726;2024-03-22T08:10:10;38.28;;;22.10;;
59006;SDS011;44792;52.760;6.726;2024-03-22T08:12:36;41.53;;;20.98;;
59006;SDS011;44792;52.760;6.726;2024-03-22T08:15:02;45.83;;;20.88;;
59006;SDS011;44792;52.760;6.726;2024-03-22T08:17:28;41.40;;;20.48;;
59006;SDS011;44792;52.760;6.726;2024-03-22T08:19:53;40.28;;;19.88;;
59006;SDS011;44792;52.760;6.726;2024-03-22T08:22:19;37.67;;;19.17;;
59006;SDS011;44792;52.760;6.726;2024-03-22T08:24:45;39.80;;;18.70;;
59006;SDS011;44792;52.760;6.726;2024-03-22T08:27:11;34.83;;;17.40;;
59006;SDS011;44792;52.760;6.726;2024-03-22T08:29:37;35.03;;;18.10;;
59006;SDS011;44792;52.760;6.726;2024-03-22T08:32:03;37.60;;;16.83;;
59006;SDS011;44792;52.760;6.726;2024-03-22T08:34:33;37.42;;;17.77;;
59006;SDS011;44792;52.760;6.726;2024-03-22T08:36:58;36.30;;;17.88;;
59006;SDS011;44792;52.760;6.726;2024-03-22T08:39:24;37.58;;;16.90;;
59006;SDS011;44792;52.760;6.726;2024-03-22T08:41:50;33.10;;;16.17;;
59006;SDS011;44792;52.760;6.726;2024-03-22T08:44:16;33.15;;;16.75;;
59006;SDS011;44792;52.760;6.726;2024-03-22T08:46:43;34.58;;;16.35;;
59006;SDS011;44792;52.760;6.726;2024-03-22T08:49:08;33.10;;;15.60;;
59006;SDS011;44792;52.760;6.726;2024-03-22T08:51:34;28.13;;;13.93;;
59006;SDS011;44792;52.760;6.726;2024-03-22T08:54:00;36.88;;;15.15;;
59006;SDS011;44792;52.760;6.726;2024-03-22T08:56:26;35.55;;;15.65;;
59006;SDS011;44792;52.760;6.726;2024-03-22T08:58:52;32.35;;;15.02;;
59006;SDS011;44792;52.760;6.726;2024-03-22T09:01:17;40.13;;;15.70;;
59006;SDS011;44792;52.760;6.726;2024-03-22T09:03:43;28.35;;;14.73;;
59006;SDS011;44792;52.760;6.726;2024-03-22T09:06:12;36.15;;;15.15;;
59006;SDS011;44792;52.760;6.726;2024-03-22T09:08:38;29.10;;;15.30;;
59006;SDS011;44792;52.760;6.726;2024-03-22T09:11:04;31.70;;;15.68;;
59006;SDS011;44792;52.760;6.726;2024-03-22T09:13:30;29.98;;;14.77;;
59006;SDS011;44792;52.760;6.726;2024-03-22T09:15:56;31.70;;;14.48;;
59006;SDS011;44792;52.760;6.726;2024-03-22T09:18:26;32.63;;;15.65;;
59006;SDS011;44792;52.760;6.726;2024-03-22T09:20:52;37.22;;;15.10;;
59006;SDS011;44792;52.760;6.726;2024-03-22T09:23:18;31.27;;;16.23;;
59006;SDS011;44792;52.760;6.726;2024-03-22T09:25:45;31.08;;;15.23;;
59006;SDS011;44792;52.760;6.726;2024-03-22T09:28:12;27.55;;;14.45;;
59006;SDS011;44792;52.760;6.726;2024-03-22T09:30:41;30.50;;;13.85;;
59006;SDS011;44792;52.760;6.726;2024-03-22T09:33:08;26.73;;;15.38;;
59006;SDS011;44792;52.760;6.726;2024-03-22T09:35:34;28.40;;;15.23;;
59006;SDS011;44792;52.760;6.726;2024-03-22T09:38:00;30.65;;;14.02;;
59006;SDS011;44792;52.760;6.726;2024-03-22T09:40:27;24.45;;;13.35;;
59006;SDS011;44792;52.760;6.726;2024-03-22T09:42:53;29.88;;;14.57;;
59006;SDS011;44792;52.760;6.726;2024-03-22T09:45:19;24.58;;;13.25;;
59006;SDS011;44792;52.760;6.726;2024-03-22T09:47:45;26.10;;;12.52;;
59006;SDS011;44792;52.760;6.726;2024-03-22T09:50:13;26.55;;;13.05;;
59006;SDS011;44792;52.760;6.726;2024-03-22T09:52:40;31.23;;;13.05;;
59006;SDS011;44792;52.760;6.726;2024-03-22T09:55:07;25.38;;;13.27;;
59006;SDS011;44792;52.760;6.726;2024-03-22T09:57:34;24.20;;;13.40;;
59006;SDS011;44792;52.760;6.726;2024-03-22T10:00:04;22.67;;;13.93;;
59006;SDS011;44792;52.760;6.726;2024-03-22T10:02:32;24.40;;;12.50;;
59006;SDS011;44792;52.760;6.726;2024-03-22T10:04:59;17.95;;;11.48;;
59006;SDS011;44792;52.760;6.726;2024-03-22T10:07:25;20.88;;;11.23;;
59006;SDS011;44792;52.760;6.726;2024-03-22T10:09:51;16.88;;;11.32;;
59006;SDS011;44792;52.760;6.726;2024-03-22T10:12:17;21.17;;;11.75;;
59006;SDS011;44792;52.760;6.726;2024-03-22T10:14:43;18.42;;;11.73;;
59006;SDS011;44792;52.760;6.726;2024-03-22T10:17:09;19.75;;;11.93;;
59006;SDS011;44792;52.760;6.726;2024-03-22T10:19:35;20.58;;;12.15;;
59006;SDS011;44792;52.760;6.726;2024-03-22T10:22:04;20.48;;;11.57;;
59006;SDS011;44792;52.760;6.726;2024-03-22T10:24:32;20.37;;;12.57;;
59006;SDS011;44792;52.760;6.726;2024-03-22T10:26:59;22.75;;;12.25;;
59006;SDS011;44792;52.760;6.726;2024-03-22T10:29:26;20.10;;;11.90;;
59006;SDS011;44792;52.760;6.726;2024-03-22T10:31:52;23.67;;;13.20;;
59006;SDS011;44792;52.760;6.726;2024-03-22T10:34:19;20.13;;;10.85;;
59006;SDS011;44792;52.760;6.726;2024-03-22T10:36:46;21.50;;;12.73;;
59006;SDS011;44792;52.760;6.726;2024-03-22T10:39:13;19.52;;;11.85;;
59006;SDS011;44792;52.760;6.726;2024-03-22T10:41:47;18.70;;;12.50;;
59006;SDS011;44792;52.760;6.726;2024-03-22T10:44:13;17.92;;;10.82;;
59006;SDS011;44792;52.760;6.726;2024-03-22T10:46:43;19.73;;;12.63;;
59006;SDS011;44792;52.760;6.726;2024-03-22T10:49:11;18.85;;;11.68;;
59006;SDS011;44792;52.760;6.726;2024-03-22T10:51:40;18.38;;;11.75;;
59006;SDS011;44792;52.760;6.726;2024-03-22T10:54:08;22.52;;;12.55;;
59006;SDS011;44792;52.760;6.726;2024-03-22T10:56:35;20.17;;;11.93;;
59006;SDS011;44792;52.760;6.726;2024-03-22T10:59:03;19.85;;;11.27;;
59006;SDS011;44792;52.760;6.726;2024-03-22T11:01:29;21.48;;;11.98;;
59006;SDS011;44792;52.760;6.726;2024-03-22T11:04:05;21.67;;;11.73;;
59006;SDS011;44792;52.760;6.726;2024-03-22T11:06:37;18.23;;;10.05;;
59006;SDS011;44792;52.760;6.726;2024-03-22T11:09:03;18.70;;;10.80;;
59006;SDS011;44792;52.760;6.726;2024-03-22T11:11:32;17.63;;;10.10;;
59006;SDS011;44792;52.760;6.726;2024-03-22T11:14:02;18.30;;;9.90;;
59006;SDS011;44792;52.760;6.726;2024-03-22T11:16:29;14.48;;;9.48;;
59006;SDS011;44792;52.760;6.726;2024-03-22T11:18:55;15.10;;;10.32;;
59006;SDS011;44792;52.760;6.726;2024-03-22T11:21:21;14.82;;;9.10;;
59006;SDS011;44792;52.760;6.726;2024-03-22T11:23:46;13.00;;;8.93;;
59006;SDS011;44792;52.760;6.726;2024-03-22T11:26:12;16.42;;;8.95;;
59006;SDS011;44792;52.760;6.726;2024-03-22T11:28:39;14.00;;;9.02;;
59006;SDS011;44792;52.760;6.726;2024-03-22T11:31:05;14.27;;;10.10;;
59006;SDS011;44792;52.760;6.726;2024-03-22T11:33:30;12.68;;;8.85;;
59006;SDS011;44792;52.760;6.726;2024-03-22T11:36:01;12.48;;;9.25;;
59006;SDS011;44792;52.760;6.726;2024-03-22T11:38:29;14.95;;;8.07;;
59006;SDS011;44792;52.760;6.726;2024-03-22T11:40:56;9.52;;;7.57;;
59006;SDS011;44792;52.760;6.726;2024-03-22T11:43:25;10.15;;;6.97;;
59006;SDS011;44792;52.760;6.726;2024-03-22T11:45:53;13.25;;;7.72;;
59006;SDS011;44792;52.760;6.726;2024-03-22T11:48:19;10.70;;;7.68;;
59006;SDS011;44792;52.760;6.726;2024-03-22T11:50:45;10.85;;;7.85;;
59006;SDS011;44792;52.760;6.726;2024-03-22T11:53:11;9.98;;;6.93;;
59006;SDS011;44792;52.760;6.726;2024-03-22T11:55:37;11.15;;;7.07;;
59006;SDS011;44792;52.760;6.726;2024-03-22T11:58:03;12.10;;;6.65;;
59006;SDS011;44792;52.760;6.726;2024-03-22T12:00:29;12.30;;;8.25;;
59006;SDS011;44792;52.760;6.726;2024-03-22T12:02:54;10.43;;;6.47;;
59006;SDS011;44792;52.760;6.726;2024-03-22T12:05:20;10.52;;;8.10;;
59006;SDS011;44792;52.760;6.726;2024-03-22T12:07:46;11.52;;;7.47;;
59006;SDS011;44792;52.760;6.726;2024-03-22T12:10:12;12.90;;;7.78;;
59006;SDS011;44792;52.760;6.726;2024-03-22T12:12:38;7.95;;;6.25;;
59006;SDS011;44792;52.760;6.726;2024-03-22T12:15:04;9.25;;;6.60;;
59006;SDS011;44792;52.760;6.726;2024-03-22T12:17:31;11.02;;;6.85;;
59006;SDS011;44792;52.760;6.726;2024-03-22T12:19:56;9.18;;;6.93;;
59006;SDS011;44792;52.760;6.726;2024-03-22T12:22:22;12.07;;;7.25;;
59006;SDS011;44792;52.760;6.726;2024-03-22T12:24:50;9.75;;;7.28;;
59006;SDS011;44792;52.760;6.726;2024-03-22T12:27:16;9.95;;;6.57;;
59006;SDS011;44792;52.760;6.726;2024-03-22T12:29:42;9.55;;;7.20;;
59006;SDS011;44792;52.760;6.726;2024-03-22T12:32:07;9.15;;;6.65;;
59006;SDS011;44792;52.760;6.726;2024-03-22T12:34:33;9.60;;;7.05;;
59006;SDS011;44792;52.760;6.726;2024-03-22T12:36:59;7.65;;;5.68;;
59006;SDS011;44792;52.760;6.726;2024-03-22T12:39:25;8.27;;;5.88;;
59006;SDS011;44792;52.760;6.726;2024-03-22T12:41:51;5.93;;;5.07;;
59006;SDS011;44792;52.760;6.726;2024-03-22T12:44:17;8.98;;;5.30;;
59006;SDS011;44792;52.760;6.726;2024-03-22T12:46:44;5.00;;;4.00;;
59006;SDS011;44792;52.760;6.726;2024-03-22T12:49:10;3.50;;;2.97;;
59006;SDS011;44792;52.760;6.726;2024-03-22T12:51:37;5.18;;;3.30;;
59006;SDS011;44792;52.760;6.726;2024-03-22T12:54:03;3.20;;;2.78;;
59006;SDS011;44792;52.760;6.726;2024-03-22T12:56:32;3.00;;;2.63;;
59006;SDS011;44792;52.760;6.726;2024-03-22T12:58:58;3.00;;;2.60;;
59006;SDS011;44792;52.760;6.726;2024-03-22T13:01:24;4.68;;;2.83;;
59006;SDS011;44792;52.760;6.726;2024-03-22T13:03:50;3.40;;;2.45;;
59006;SDS011;44792;52.760;6.726;2024-03-22T13:06:16;4.22;;;2.88;;
59006;SDS011;44792;52.760;6.726;2024-03-22T13:08:42;3.97;;;3.05;;
59006;SDS011;44792;52.760;6.726;2024-03-22T13:11:07;4.22;;;2.80;;
59006;SDS011;44792;52.760;6.726;2024-03-22T13:13:36;3.88;;;3.30;;
59006;SDS011;44792;52.760;6.726;2024-03-22T13:16:02;6.80;;;2.95;;
59006;SDS011;44792;52.760;6.726;2024-03-22T13:18:28;4.30;;;2.33;;
59006;SDS011;44792;52.760;6.726;2024-03-22T13:20:55;7.68;;;2.75;;
59006;SDS011;44792;52.760;6.726;2024-03-22T13:23:20;6.03;;;2.40;;
59006;SDS011;44792;52.760;6.726;2024-03-22T13:25:46;7.28;;;3.05;;
59006;SDS011;44792;52.760;6.726;2024-03-22T13:28:12;5.82;;;2.60;;
59006;SDS011;44792;52.760;6.726;2024-03-22T13:30:38;6.47;;;2.30;;
59006;SDS011;44792;52.760;6.726;2024-03-22T13:33:04;5.28;;;2.92;;
59006;SDS011;44792;52.760;6.726;2024-03-22T13:35:29;5.07;;;2.30;;
59006;SDS011;44792;52.760;6.726;2024-03-22T13:37:55;8.73;;;2.80;;
59006;SDS011;44792;52.760;6.726;2024-03-22T13:40:21;4.40;;;2.50;;
59006;SDS011;44792;52.760;6.726;2024-03-22T13:42:47;7.28;;;2.80;;
59006;SDS011;44792;52.760;6.726;2024-03-22T13:45:12;7.88;;;3.20;;
59006;SDS011;44792;52.760;6.726;2024-03-22T13:47:38;11.45;;;4.22;;
59006;SDS011;44792;52.760;6.726;2024-03-22T13:50:06;6.05;;;3.17;;
59006;SDS011;44792;52.760;6.726;2024-03-22T13:52:33;10.55;;;3.15;;
59006;SDS011;44792;52.760;6.726;2024-03-22T13:55:00;15.68;;;4.38;;
59006;SDS011;44792;52.760;6.726;2024-03-22T13:57:27;12.90;;;3.45;;
59006;SDS011;44792;52.760;6.726;2024-03-22T13:59:53;11.20;;;3.85;;
59006;SDS011;44792;52.760;6.726;2024-03-22T14:02:18;13.55;;;4.63;;
59006;SDS011;44792;52.760;6.726;2024-03-22T14:04:45;12.18;;;4.18;;
59006;SDS011;44792;52.760;6.726;2024-03-22T14:07:11;17.27;;;4.97;;
59006;SDS011;44792;52.760;6.726;2024-03-22T14:09:36;13.35;;;5.07;;
59006;SDS011;44792;52.760;6.726;2024-03-22T14:12:02;10.35;;;4.53;;
59006;SDS011;44792;52.760;6.726;2024-03-22T14:14:28;14.45;;;4.95;;
59006;SDS011;44792;52.760;6.726;2024-03-22T14:16:54;11.45;;;4.45;;
59006;SDS011;44792;52.760;6.726;2024-03-22T14:19:20;14.25;;;5.03;;
59006;SDS011;44792;52.760;6.726;2024-03-22T14:21:46;16.70;;;5.65;;